Time;durP1;ratioP1;P1;durP2;ratioP2;P2;SDS_P1;SDS_P2;PMS_P1;PMS_P2;Temp;Humidity;BMP_temperature;BMP_pressure;BME280_temperature;BME280_humidity;BME280_pressure;Samples;Min_cycle;Max_cycle;Signal;HPM_P1;HPM_P2
2023/06/01 00:01:41;;;;;;;;;;;20.40;59.30;;;;;;10164894;28;93642;-65
2023/06/01 00:06:43;;;;;;;;;;;20.40;59.30;;;;;;10148683;28;94626;-65
2023/06/01 00:11:45;;;;;;;;;;;20.40;59.20;;;;;;10165245;28;94462;-65
2023/06/01 00:16:47;;;;;;;;;;;20.40;59.10;;;;;;10165009;28;94634;-65
2023/06/01 00:21:49;;;;;;;;;;;20.40;58.90;;;;;;10147448;28;94617;-65
2023/06/01 00:26:51;;;;;;;;;;;20.40;59.00;;;;;;10166716;28;92805;-64
2023/06/01 00:31:53;;;;;;;;;;;20.40;58.90;;;;;;10148568;28;94542;-65
2023/06/01 00:36:55;;;;;;;;;;;20.40;58.90;;;;;;10170780;28;93561;-65
2023/06/01 00:41:56;;;;;;;;;;;20.40;58.80;;;;;;10168027;28;95908;-65
2023/06/01 00:46:59;;;;;;;;;;;20.40;58.90;;;;;;10171259;28;94551;-65
2023/06/01 00:52:01;;;;;;;;;;;20.30;58.80;;;;;;10170410;28;93497;-65
2023/06/01 00:57:03;;;;;;;;;;;20.30;58.70;;;;;;10152629;28;93539;-65
2023/06/01 01:02:05;;;;;;;;;;;20.30;58.80;;;;;;10170100;28;93723;-65
2023/06/01 01:07:24;;;;;;;;;;;20.30;58.60;;;;;;10171259;28;94508;-65
2023/06/01 01:12:32;;;;;;;;;;;20.30;58.60;;;;;;10153605;28;94492;-65
2023/06/01 01:17:42;;;;;;;;;;;20.30;58.60;;;;;;10153350;28;93239;-65
2023/06/01 01:22:47;;;;;;;;;;;20.20;58.50;;;;;;10169101;28;93253;-66
2023/06/01 01:28:00;;;;;;;;;;;20.20;58.40;;;;;;10169385;28;93656;-65
2023/06/01 01:33:03;;;;;;;;;;;20.20;58.50;;;;;;10168037;28;96096;-65
2023/06/01 01:38:05;;;;;;;;;;;20.20;58.50;;;;;;10169634;28;94578;-65
2023/06/01 01:43:07;;;;;;;;;;;20.20;58.50;;;;;;10169406;28;94592;-66
2023/06/01 01:48:11;;;;;;;;;;;20.20;58.40;;;;;;10169268;28;94924;-65
2023/06/01 01:53:13;;;;;;;;;;;20.20;58.40;;;;;;10168033;28;93002;-65
2023/06/01 01:58:14;;;;;;;;;;;20.20;58.40;;;;;;10168949;28;94691;-65
2023/06/01 02:03:17;;;;;;;;;;;20.20;58.40;;;;;;10168520;28;93862;-65
2023/06/01 02:08:19;;;;;;;;;;;20.20;58.40;;;;;;10151551;28;92963;-65
2023/06/01 02:13:21;;;;;;;;;;;20.20;58.30;;;;;;10169068;28;93249;-65
2023/06/01 02:18:25;;;;;;;;;;;20.20;58.30;;;;;;10150524;28;93642;-65
2023/06/01 02:23:27;;;;;;;;;;;20.20;58.20;;;;;;10165490;28;96817;-65
2023/06/01 02:28:31;;;;;;;;;;;20.20;58.20;;;;;;10167088;28;92762;-65
2023/06/01 02:33:33;;;;;;;;;;;20.20;58.20;;;;;;10150204;28;94491;-65
2023/06/01 02:38:35;;;;;;;;;;;20.20;58.10;;;;;;10149749;28;94047;-65
2023/06/01 02:43:37;;;;;;;;;;;20.20;58.10;;;;;;10167475;28;94410;-65
2023/06/01 02:48:39;;;;;;;;;;;20.10;58.00;;;;;;10167090;28;93800;-65
2023/06/01 02:53:41;;;;;;;;;;;20.10;58.00;;;;;;10166052;28;94580;-65
2023/06/01 02:58:43;;;;;;;;;;;20.20;58.00;;;;;;10149959;28;92835;-65
2023/06/01 03:03:46;;;;;;;;;;;20.10;58.00;;;;;;10166685;28;94629;-65
2023/06/01 03:08:48;;;;;;;;;;;20.10;57.90;;;;;;10166602;28;94051;-65
2023/06/01 03:13:50;;;;;;;;;;;20.10;57.90;;;;;;10163465;28;95914;-65
2023/06/01 03:18:52;;;;;;;;;;;20.10;57.90;;;;;;10148782;28;93903;-65
2023/06/01 03:23:54;;;;;;;;;;;20.10;57.80;;;;;;10165930;28;94485;-65
2023/06/01 03:28:55;;;;;;;;;;;20.10;57.90;;;;;;10165049;28;94199;-65
2023/06/01 03:33:57;;;;;;;;;;;20.10;57.80;;;;;;10165153;28;93533;-65
2023/06/01 03:38:59;;;;;;;;;;;20.10;57.80;;;;;;10165684;28;93689;-65
2023/06/01 03:44:01;;;;;;;;;;;20.00;57.80;;;;;;10165655;28;94603;-65
2023/06/01 05:07:17;;;;;;;;;;;20.00;57.40;;;;;;10129564;28;94354;-66
2023/06/01 05:12:19;;;;;;;;;;;20.00;57.60;;;;;;10133773;28;97113;-67
2023/06/01 05:17:22;;;;;;;;;;;20.00;57.70;;;;;;10168712;28;93507;-68
2023/06/01 05:22:24;;;;;;;;;;;20.00;58.60;;;;;;10169996;28;94539;-68
2023/06/01 05:27:26;;;;;;;;;;;20.10;57.70;;;;;;10151283;28;93483;-68
2023/06/01 05:32:27;;;;;;;;;;;20.10;57.60;;;;;;10169520;28;94635;-68
2023/06/01 05:37:29;;;;;;;;;;;20.00;57.50;;;;;;10169244;28;96129;-67
2023/06/01 05:42:31;;;;;;;;;;;20.10;57.60;;;;;;10148934;28;93619;-69
2023/06/01 05:47:33;;;;;;;;;;;20.00;59.20;;;;;;10123425;28;93098;-66
2023/06/01 05:52:34;;;;;;;;;;;20.10;58.90;;;;;;10110903;28;94575;-66
2023/06/01 05:57:36;;;;;;;;;;;20.10;59.30;;;;;;10128909;28;94152;-67
2023/06/01 06:02:38;;;;;;;;;;;20.20;59.30;;;;;;10145306;28;96006;-67
2023/06/01 06:07:40;;;;;;;;;;;20.20;59.00;;;;;;10166917;28;93601;-67
2023/06/01 06:12:41;;;;;;;;;;;20.20;59.50;;;;;;10166368;28;93698;-68
2023/06/01 06:17:43;;;;;;;;;;;20.20;59.50;;;;;;10166793;28;93566;-67
2023/06/01 06:22:45;;;;;;;;;;;20.20;59.30;;;;;;10165966;28;93356;-68
2023/06/01 06:27:47;;;;;;;;;;;20.20;59.00;;;;;;10167063;28;93090;-68
2023/06/01 06:32:49;;;;;;;;;;;20.10;59.00;;;;;;10165944;28;93520;-68
2023/06/01 06:37:51;;;;;;;;;;;20.10;58.80;;;;;;10168513;28;93498;-68
2023/06/01 06:42:52;;;;;;;;;;;20.10;58.70;;;;;;10166920;28;96669;-68
2023/06/01 06:47:54;;;;;;;;;;;20.10;58.60;;;;;;10166479;28;94542;-68
2023/06/01 06:52:56;;;;;;;;;;;20.10;58.50;;;;;;10164847;28;95783;-68
2023/06/01 06:57:57;;;;;;;;;;;20.10;58.50;;;;;;10149839;28;94169;-68
2023/06/01 07:03:00;;;;;;;;;;;20.00;58.30;;;;;;10164950;28;93497;-69
2023/06/01 07:08:02;;;;;;;;;;;20.10;59.30;;;;;;10166148;28;93478;-68
2023/06/01 07:13:03;;;;;;;;;;;20.00;58.10;;;;;;10165006;28;94622;-68
2023/06/01 07:18:06;;;;;;;;;;;20.00;58.10;;;;;;10165694;28;94687;-68
2023/06/01 07:23:08;;;;;;;;;;;20.00;58.10;;;;;;10165835;28;94147;-68
2023/06/01 07:28:10;;;;;;;;;;;20.00;58.00;;;;;;10166100;28;93807;-69
2023/06/01 07:33:11;;;;;;;;;;;20.10;58.00;;;;;;10165856;28;94497;-68
2023/06/01 07:38:14;;;;;;;;;;;20.00;57.90;;;;;;10165872;28;93449;-68
2023/06/01 07:43:16;;;;;;;;;;;20.00;57.80;;;;;;10168274;28;96906;-68
2023/06/01 07:48:18;;;;;;;;;;;20.00;57.90;;;;;;10154605;28;94474;-68
2023/06/01 07:53:20;;;;;;;;;;;20.00;57.70;;;;;;10172103;28;93697;-69
2023/06/01 07:58:22;;;;;;;;;;;20.00;57.70;;;;;;10172164;28;93667;-69
2023/06/01 08:03:25;;;;;;;;;;;20.00;57.60;;;;;;10172128;28;95128;-68
2023/06/01 08:08:28;;;;;;;;;;;20.00;57.60;;;;;;10155017;28;93630;-68
2023/06/01 08:13:29;;;;;;;;;;;20.00;57.50;;;;;;10172863;28;94589;-68
2023/06/01 08:18:31;;;;;;;;;;;20.00;57.60;;;;;;10172872;28;93876;-69
2023/06/01 08:23:34;;;;;;;;;;;20.00;57.60;;;;;;10154953;28;93484;-68
2023/06/01 08:28:37;;;;;;;;;;;20.00;57.60;;;;;;10171268;28;94697;-68
2023/06/01 08:33:40;;;;;;;;;;;20.00;57.50;;;;;;10168657;28;95963;-68
2023/06/01 08:38:42;;;;;;;;;;;20.00;57.50;;;;;;10171527;28;94497;-68
2023/06/01 08:43:47;;;;;;;;;;;20.00;57.50;;;;;;10171338;28;94490;-69
2023/06/01 08:48:52;;;;;;;;;;;20.00;57.40;;;;;;10170210;28;93705;-68
2023/06/01 08:53:57;;;;;;;;;;;20.00;57.40;;;;;;10168917;28;113906;-68
2023/06/01 08:58:59;;;;;;;;;;;20.00;57.40;;;;;;10169502;28;93786;-68
2023/06/01 09:04:01;;;;;;;;;;;20.00;57.20;;;;;;10171038;28;94789;-69
2023/06/01 09:09:03;;;;;;;;;;;20.00;57.20;;;;;;10170860;28;92856;-68
2023/06/01 09:14:21;;;;;;;;;;;20.00;57.10;;;;;;10170711;28;94004;-68
2023/06/01 09:19:23;;;;;;;;;;;20.10;57.20;;;;;;10169020;28;93658;-69
2023/06/01 09:24:25;;;;;;;;;;;20.10;57.20;;;;;;10167369;28;95935;-68
2023/06/01 09:29:27;;;;;;;;;;;20.10;57.20;;;;;;10169571;28;93585;-68
2023/06/01 09:34:30;;;;;;;;;;;20.10;57.00;;;;;;10169110;28;93609;-69
2023/06/01 09:39:33;;;;;;;;;;;20.10;57.10;;;;;;10168560;28;93530;-68
2023/06/01 09:44:39;;;;;;;;;;;20.20;56.90;;;;;;10169249;28;93817;-68
2023/06/01 09:49:41;;;;;;;;;;;20.20;56.80;;;;;;10169564;28;94137;-68
2023/06/01 09:54:48;;;;;;;;;;;20.20;56.80;;;;;;10169779;28;94832;-68
2023/06/01 09:59:49;;;;;;;;;;;20.20;56.70;;;;;;10169341;28;93760;-68
2023/06/01 10:04:53;;;;;;;;;;;20.20;56.70;;;;;;10169268;28;94631;-68
2023/06/01 10:09:57;;;;;;;;;;;20.30;56.60;;;;;;10168486;28;94419;-68
2023/06/01 10:14:59;;;;;;;;;;;20.30;56.60;;;;;;10165832;28;96965;-68
2023/06/01 10:20:02;;;;;;;;;;;20.30;56.50;;;;;;10151178;28;93485;-68
2023/06/01 10:25:04;;;;;;;;;;;20.30;56.60;;;;;;10167657;28;94687;-68
2023/06/01 10:30:07;;;;;;;;;;;20.30;56.60;;;;;;10167371;28;93560;-69
2023/06/01 10:35:12;;;;;;;;;;;20.30;56.60;;;;;;10168132;28;93558;-69
2023/06/01 10:40:14;;;;;;;;;;;20.30;56.70;;;;;;10168525;28;93545;-68
2023/06/01 10:45:35;;;;;;;;;;;20.20;56.70;;;;;;10149454;28;94377;-68
2023/06/01 10:50:38;;;;;;;;;;;20.20;56.80;;;;;;10167293;28;92952;-68
2023/06/01 10:55:39;;;;;;;;;;;20.20;56.90;;;;;;10166603;28;93562;-69
2023/06/01 11:00:41;;;;;;;;;;;20.20;57.00;;;;;;10167501;28;94672;-69
2023/06/01 11:05:52;;;;;;;;;;;20.10;57.10;;;;;;10163905;28;95866;-68
2023/06/01 11:10:56;;;;;;;;;;;20.10;57.10;;;;;;10167169;28;93701;-68
2023/06/01 11:16:04;;;;;;;;;;;20.10;57.10;;;;;;10148492;28;93490;-68
2023/06/01 11:21:18;;;;;;;;;;;20.10;57.20;;;;;;10166816;28;94391;-68
2023/06/01 11:26:25;;;;;;;;;;;20.10;57.20;;;;;;10166895;28;94371;-69
2023/06/01 11:31:27;;;;;;;;;;;20.10;57.20;;;;;;10166978;28;94701;-68
2023/06/01 11:36:29;;;;;;;;;;;20.10;57.10;;;;;;10164859;28;93588;-69
2023/06/01 11:41:31;;;;;;;;;;;20.10;57.20;;;;;;10167295;28;94161;-68
2023/06/01 11:46:32;;;;;;;;;;;20.10;57.20;;;;;;10147997;28;94447;-68
2023/06/01 11:51:38;;;;;;;;;;;20.10;57.00;;;;;;10165243;28;94764;-68
2023/06/01 11:56:41;;;;;;;;;;;20.10;57.10;;;;;;10163457;28;95931;-68
2023/06/01 12:01:44;;;;;;;;;;;20.10;57.00;;;;;;10164978;28;94297;-69
2023/06/01 12:06:45;;;;;;;;;;;20.10;57.10;;;;;;10148548;28;94508;-68
2023/06/01 12:11:48;;;;;;;;;;;20.10;57.00;;;;;;10164615;28;94416;-69
2023/06/01 12:16:52;;;;;;;;;;;20.10;56.90;;;;;;10164873;28;93491;-68
2023/06/01 12:21:56;;;;;;;;;;;20.10;57.10;;;;;;10165007;28;93282;-69
2023/06/01 12:26:58;;;;;;;;;;;20.10;56.90;;;;;;10167097;28;94506;-68
2023/06/01 12:32:00;;;;;;;;;;;20.10;56.80;;;;;;10171527;28;92230;-69
2023/06/01 12:37:31;;;;;;;;;;;20.10;56.80;;;;;;10171659;28;94493;-69
2023/06/01 12:42:35;;;;;;;;;;;20.10;56.70;;;;;;10155371;28;93678;-68
2023/06/01 12:47:37;;;;;;;;;;;20.10;56.90;;;;;;10150963;28;96889;-69
2023/06/01 12:52:40;;;;;;;;;;;20.10;57.00;;;;;;10172025;28;94472;-69
2023/06/01 12:57:43;;;;;;;;;;;20.10;57.20;;;;;;10154108;28;94688;-68
2023/06/01 13:02:50;;;;;;;;;;;20.10;57.20;;;;;;10171253;28;93450;-68
2023/06/01 13:07:52;;;;;;;;;;;20.10;58.20;;;;;;10170534;28;94553;-68
2023/06/01 13:12:53;;;;;;;;;;;20.10;57.20;;;;;;10171509;28;93638;-69
2023/06/01 13:17:56;;;;;;;;;;;20.10;57.20;;;;;;10170559;28;94559;-68
2023/06/01 13:22:57;;;;;;;;;;;20.10;57.20;;;;;;10170767;28;93103;-68
2023/06/01 13:28:00;;;;;;;;;;;20.10;57.30;;;;;;10170406;28;94603;-68
2023/06/01 13:33:02;;;;;;;;;;;20.10;57.20;;;;;;10152391;28;94476;-68
2023/06/01 13:38:04;;;;;;;;;;;20.10;57.20;;;;;;10166519;28;95159;-68
2023/06/01 13:43:06;;;;;;;;;;;20.10;57.20;;;;;;10168361;28;93491;-69
2023/06/01 13:48:09;;;;;;;;;;;20.10;57.30;;;;;;10168827;28;94269;-69
2023/06/01 13:53:14;;;;;;;;;;;20.10;57.40;;;;;;10169051;28;93578;-68
2023/06/01 13:58:16;;;;;;;;;;;20.10;57.40;;;;;;10151237;28;94992;-69
2023/06/01 14:03:18;;;;;;;;;;;20.10;57.40;;;;;;10151741;28;93687;-68
2023/06/01 14:08:21;;;;;;;;;;;20.10;58.40;;;;;;10168347;28;94583;-68
2023/06/01 14:13:23;;;;;;;;;;;20.10;57.20;;;;;;10143471;28;93398;-69
2023/06/01 14:18:25;;;;;;;;;;;20.10;57.30;;;;;;10129043;28;94471;-69
2023/06/01 14:23:27;;;;;;;;;;;20.10;57.20;;;;;;10110630;28;94632;-68
2023/06/01 14:28:29;;;;;;;;;;;20.10;57.20;;;;;;10109844;28;96661;-69
2023/06/01 14:33:31;;;;;;;;;;;20.10;57.20;;;;;;10127102;28;93573;-70
2023/06/01 14:38:33;;;;;;;;;;;20.10;57.20;;;;;;10128349;28;92696;-70
2023/06/01 14:43:35;;;;;;;;;;;20.10;57.20;;;;;;10127836;28;92822;-68
2023/06/01 14:48:37;;;;;;;;;;;20.10;57.10;;;;;;10110821;28;93949;-67
2023/06/01 14:53:39;;;;;;;;;;;20.10;57.10;;;;;;10127006;28;94606;-66
2023/06/01 14:58:41;;;;;;;;;;;20.10;57.00;;;;;;10126887;28;94682;-67
2023/06/01 15:03:42;;;;;;;;;;;20.10;56.90;;;;;;10127621;28;93870;-67
2023/06/01 15:08:44;;;;;;;;;;;20.10;56.80;;;;;;10128258;28;93377;-66
2023/06/01 15:13:46;;;;;;;;;;;20.20;56.70;;;;;;10126779;28;94085;-67
2023/06/01 15:18:48;;;;;;;;;;;20.10;56.60;;;;;;10125779;28;96971;-69
2023/06/01 15:23:50;;;;;;;;;;;20.10;56.60;;;;;;10109880;28;94485;-69
2023/06/01 15:28:51;;;;;;;;;;;20.10;56.90;;;;;;10126525;28;94498;-69
2023/06/01 15:33:53;;;;;;;;;;;20.10;56.90;;;;;;10109661;28;93656;-69
2023/06/01 15:38:55;;;;;;;;;;;20.10;56.80;;;;;;10126322;28;94810;-68
2023/06/01 15:43:56;;;;;;;;;;;20.10;56.80;;;;;;10108488;28;94604;-69
2023/06/01 15:48:58;;;;;;;;;;;20.10;57.00;;;;;;10125122;28;93566;-67
2023/06/01 15:54:00;;;;;;;;;;;20.10;58.10;;;;;;10127056;28;93739;-69
2023/06/01 15:59:02;;;;;;;;;;;20.20;58.00;;;;;;10125837;28;92804;-69
2023/06/01 16:04:03;;;;;;;;;;;20.20;58.80;;;;;;10113958;28;94407;-71
2023/06/01 16:09:05;;;;;;;;;;;20.30;60.30;;;;;;10129449;28;95914;-68
2023/06/01 16:14:07;;;;;;;;;;;20.40;62.60;;;;;;10132523;28;93827;-70
2023/06/01 16:19:09;;;;;;;;;;;20.60;64.20;;;;;;10115432;28;94589;-69
2023/06/01 16:24:11;;;;;;;;;;;20.80;64.30;;;;;;10132275;28;94929;-68
2023/06/01 16:29:12;;;;;;;;;;;20.90;63.70;;;;;;10131776;28;94427;-67
2023/06/01 16:34:14;;;;;;;;;;;21.00;63.60;;;;;;10131212;28;92558;-68
2023/06/01 16:39:16;;;;;;;;;;;21.10;62.40;;;;;;10115519;28;94479;-68
2023/06/01 16:44:18;;;;;;;;;;;21.00;62.10;;;;;;10114873;28;93884;-69
2023/06/01 16:49:20;;;;;;;;;;;21.00;61.70;;;;;;10130656;28;94431;-68
2023/06/01 16:54:21;;;;;;;;;;;21.00;61.50;;;;;;10131004;28;93552;-67
2023/06/01 16:59:23;;;;;;;;;;;20.90;61.40;;;;;;10128455;28;96549;-68
2023/06/01 17:04:25;;;;;;;;;;;20.80;61.20;;;;;;10129455;28;93527;-68
2023/06/01 17:09:26;;;;;;;;;;;20.70;61.00;;;;;;10130947;28;94089;-68
2023/06/01 17:14:30;;;;;;;;;;;20.70;60.90;;;;;;10128866;28;92626;-68
2023/06/01 17:19:32;;;;;;;;;;;20.60;60.60;;;;;;10129943;28;94428;-68
2023/06/01 17:24:34;;;;;;;;;;;20.60;60.30;;;;;;10129502;28;93417;-68
2023/06/01 17:29:36;;;;;;;;;;;20.50;60.30;;;;;;10129510;28;93450;-68
2023/06/01 17:34:37;;;;;;;;;;;20.50;60.20;;;;;;10130934;28;93811;-68
2023/06/01 17:39:39;;;;;;;;;;;20.50;60.00;;;;;;10128682;28;93488;-68
2023/06/01 17:44:41;;;;;;;;;;;20.40;59.90;;;;;;10130370;28;94464;-68
2023/06/01 17:49:43;;;;;;;;;;;20.40;59.90;;;;;;10126816;28;96870;-69
2023/06/01 17:54:45;;;;;;;;;;;20.30;59.70;;;;;;10111640;28;93314;-69
2023/06/01 17:59:48;;;;;;;;;;;20.30;59.60;;;;;;10129848;28;93557;-69
2023/06/01 18:04:50;;;;;;;;;;;20.30;59.50;;;;;;10112284;28;94633;-69
2023/06/01 18:09:52;;;;;;;;;;;20.30;59.40;;;;;;10111696;28;93445;-69
2023/06/01 18:14:54;;;;;;;;;;;20.20;59.30;;;;;;10129370;28;93692;-69
2023/06/01 18:19:56;;;;;;;;;;;20.20;60.10;;;;;;10128846;28;94544;-69
2023/06/01 18:24:58;;;;;;;;;;;20.30;59.80;;;;;;10128487;28;92779;-69
2023/06/01 18:29:59;;;;;;;;;;;20.30;60.00;;;;;;10128006;28;92481;-69
2023/06/01 18:35:01;;;;;;;;;;;20.30;59.90;;;;;;10127785;28;94564;-69
2023/06/01 18:40:03;;;;;;;;;;;20.30;60.10;;;;;;10125875;28;96020;-69
2023/06/01 18:45:05;;;;;;;;;;;20.30;59.90;;;;;;10127610;28;94515;-69
2023/06/01 18:50:07;;;;;;;;;;;20.30;59.70;;;;;;10126229;28;94261;-69
2023/06/01 18:55:12;;;;;;;;;;;20.20;59.50;;;;;;10110943;28;94878;-69
2023/06/01 19:00:15;;;;;;;;;;;20.20;59.20;;;;;;10127827;28;93355;-67
2023/06/01 19:05:21;;;;;;;;;;;20.20;59.20;;;;;;10110393;28;93593;-68
2023/06/01 19:10:45;;;;;;;;;;;20.20;59.20;;;;;;10126529;28;93678;-68
2023/06/01 19:15:47;;;;;;;;;;;20.20;59.30;;;;;;10127485;28;92879;-68
2023/06/01 19:21:03;;;;;;;;;;;20.20;59.30;;;;;;10127107;28;93973;-68
2023/06/01 19:26:07;;;;;;;;;;;20.20;59.70;;;;;;10126970;28;93678;-68
2023/06/01 19:31:10;;;;;;;;;;;20.20;59.70;;;;;;10123279;28;97183;-68
2023/06/01 19:36:31;;;;;;;;;;;20.20;59.70;;;;;;10126281;28;93881;-67
2023/06/01 19:41:34;;;;;;;;;;;20.20;59.30;;;;;;10126369;28;93976;-67
2023/06/01 19:46:36;;;;;;;;;;;20.20;59.70;;;;;;10109025;28;94527;-68
2023/06/01 19:51:38;;;;;;;;;;;20.20;59.70;;;;;;10125348;28;93674;-68
2023/06/01 19:56:40;;;;;;;;;;;20.20;59.70;;;;;;10124925;28;93540;-68
2023/06/01 20:01:42;;;;;;;;;;;20.20;59.70;;;;;;10125694;28;94612;-68
2023/06/01 20:06:45;;;;;;;;;;;20.20;59.70;;;;;;10126047;28;92817;-68
2023/06/01 20:11:50;;;;;;;;;;;20.20;59.60;;;;;;10124939;28;93778;-68
2023/06/01 20:16:52;;;;;;;;;;;20.20;60.50;;;;;;10125918;28;93531;-68
2023/06/01 20:21:55;;;;;;;;;;;20.20;59.50;;;;;;10122360;28;95918;-68
2023/06/01 20:26:59;;;;;;;;;;;20.10;59.30;;;;;;10125208;28;93553;-68
2023/06/01 20:32:03;;;;;;;;;;;20.10;58.90;;;;;;10108179;28;93683;-67
2023/06/01 20:37:05;;;;;;;;;;;20.10;58.80;;;;;;10124888;28;92787;-68
2023/06/01 20:42:06;;;;;;;;;;;20.00;58.60;;;;;;10124932;28;93503;-68
2023/06/01 20:47:08;;;;;;;;;;;20.10;58.60;;;;;;10125606;28;94680;-68
2023/06/01 20:52:11;;;;;;;;;;;20.00;58.40;;;;;;10114422;28;94599;-68
2023/06/01 20:57:15;;;;;;;;;;;20.00;58.40;;;;;;10116073;28;93933;-68
2023/06/01 21:02:21;;;;;;;;;;;20.00;58.20;;;;;;10130827;28;93722;-68
2023/06/01 21:07:22;;;;;;;;;;;20.00;58.20;;;;;;10130045;28;94624;-68
2023/06/01 21:12:24;;;;;;;;;;;19.90;58.10;;;;;;10109738;28;96067;-68
2023/06/01 21:17:26;;;;;;;;;;;19.90;57.90;;;;;;10128976;28;93536;-68
2023/06/01 21:22:28;;;;;;;;;;;19.90;58.00;;;;;;10130843;28;94433;-68
2023/06/01 21:27:30;;;;;;;;;;;19.90;57.80;;;;;;10112677;28;93511;-69
2023/06/01 21:32:32;;;;;;;;;;;19.90;57.80;;;;;;10129941;28;94546;-68
2023/06/01 21:37:34;;;;;;;;;;;19.90;57.70;;;;;;10129878;28;94044;-68
2023/06/01 21:42:39;;;;;;;;;;;19.90;57.50;;;;;;10130545;28;94631;-68
2023/06/01 21:47:42;;;;;;;;;;;19.90;57.60;;;;;;10113969;28;92598;-68
2023/06/01 21:52:45;;;;;;;;;;;19.90;57.40;;;;;;10112678;28;93504;-68
2023/06/01 21:57:47;;;;;;;;;;;19.90;57.40;;;;;;10130533;28;93284;-68
2023/06/01 22:02:49;;;;;;;;;;;19.80;57.30;;;;;;10126930;28;96449;-68
2023/06/01 22:07:50;;;;;;;;;;;19.80;57.30;;;;;;10130023;28;95350;-68
2023/06/01 22:12:52;;;;;;;;;;;19.80;57.20;;;;;;10112720;28;94485;-68
2023/06/01 22:17:55;;;;;;;;;;;19.80;57.10;;;;;;10096315;28;93560;-68
2023/06/01 22:22:57;;;;;;;;;;;19.80;57.10;;;;;;10129090;28;93546;-68
2023/06/01 22:27:59;;;;;;;;;;;19.80;57.10;;;;;;10128996;28;92564;-68
2023/06/01 22:33:01;;;;;;;;;;;19.80;57.00;;;;;;10128918;28;94776;-68
2023/06/01 22:38:03;;;;;;;;;;;19.80;57.00;;;;;;10129962;28;93721;-68
2023/06/01 22:43:05;;;;;;;;;;;19.70;57.00;;;;;;10112304;28;93323;-68
2023/06/01 22:48:07;;;;;;;;;;;19.70;57.00;;;;;;10128578;28;94274;-69
2023/06/01 22:53:09;;;;;;;;;;;19.70;57.00;;;;;;10125499;28;96806;-68
2023/06/01 22:58:11;;;;;;;;;;;19.70;57.00;;;;;;10129085;28;94660;-68
2023/06/01 23:03:13;;;;;;;;;;;19.70;57.00;;;;;;10111248;28;94479;-66
2023/06/01 23:08:19;;;;;;;;;;;19.70;56.90;;;;;;10129684;28;93426;-66
2023/06/01 23:13:25;;;;;;;;;;;19.70;56.90;;;;;;10128256;28;93008;-66
2023/06/01 23:18:28;;;;;;;;;;;19.70;56.90;;;;;;10128356;28;93346;-66
2023/06/01 23:23:30;;;;;;;;;;;19.60;56.80;;;;;;10127638;28;94543;-64
2023/06/01 23:28:32;;;;;;;;;;;19.70;56.80;;;;;;10128382;28;92128;-65
2023/06/01 23:33:35;;;;;;;;;;;19.60;56.80;;;;;;10127895;28;93771;-66
2023/06/01 23:38:38;;;;;;;;;;;19.60;56.70;;;;;;10128915;28;94483;-66
2023/06/01 23:43:39;;;;;;;;;;;19.60;56.70;;;;;;10124496;28;96384;-66
2023/06/01 23:48:41;;;;;;;;;;;19.60;56.60;;;;;;10109528;28;94938;-66
2023/06/01 23:53:44;;;;;;;;;;;19.70;56.60;;;;;;10126359;28;93574;-66
2023/06/01 23:58:46;;;;;;;;;;;19.60;56.50;;;;;;10108309;28;93810;-66
